Airfield :
LOGIN :

Register | Disclaimer

   EN    FR    IT 

 










Legend :    VFR   Marginal VFR   IFR   Intensive IFR   Very Intensive IFR
Visi :
Ceiling :
>= 8 km
>= 3000ft
5 to 8 km
1000 to 3000 ft
1500m to 5 km
500 to 1000 ft
800 to 1500m
200 to 500 ft
< 800m
< 200 ft
Symbols :   Thunderstorms  Fog  Heavy snow  Heavy precipitations  Wind > 20 kt
SIGMETs :     Misc.  Thunderstorms  Icing  Turbulence  Mountain Waves  Volcanic Ashes






- Airport Elevation : 686 ft
- IATA code : URS


UUOK - Vostochny

CURRENT METAR :
  • 310630Z 03004MPS 5000 BR OVC004 07/06 Q1014 R12/290050 NOSIG RMK QBB120 QFE743/0991

EXPIRED METARs :
  • 310600Z 03003MPS 4200 BR OVC004 07/06 Q1015 R12/290050 NOSIG RMK QBB120 QFE743/0991
  • 310530Z 04003MPS 5000 BR OVC005 07/06 Q1015 R12/290050 NOSIG RMK QBB150 QFE743/0991
  • 310500Z 03003MPS 4700 -RA BR OVC004 07/06 Q1014 R12/290050 NOSIG RMK QBB140 QFE743/0991
  • 310430Z 02003MPS 2600 BR OVC005 06/06 Q1014 R12/290050 NOSIG RMK QBB150 QFE743/0991
  • 310400Z 02003MPS 4800 BR OVC004 06/06 Q1014 R12/290050 NOSIG RMK QBB140 QFE743/0991

TAF TAF UUOK
Valid from the 31 at 06:00 until the 31 at 15:00 UTC


310500Z 3106/3115 03003MPS 3100 -RA BR OVC005
TEMPO 3106/3109 BKN004



MET'MAP, your aeronautical weather chart ! - Copyright ORBIFLY December 2007 - Disclaimer

ORBIFLY MET'MAP TEAM :

Programming & Development : Alexandra Zaïnal
Concept & original design : Baudouin d'Aumeries
Assistance for programming : Marc-Olivier Méhu
Technical & hardware support : Manuel Goepfert

Contact : metmap@orbifly.com




SOURCES & CREDITS :

   NOAA